Doorwerth, Netherlands
Current Conditions -  °F | °C
As of 4:55 PM on Saturday 25 Oct 2014 (Local Time) from EHDL Reporting Station
Haze Haze  
Wind Chill: 57°   Ceiling: 3200
Heat Index: 57°   Visibility: 3mi
Dew Point: 55°   Wind: 6mph
Humidity: 94%   Direction: 210°SSW
Pressure: 30.06"   Gusts: NA
Location:  51.98°N, 5.8°E
Report Text: EHDL 251455Z AUTO 21005KT 5000 BR FEW009 SCT022 BKN032 14/13 Q1018 WHT
Loading
Personal Weather Stations






























Interactive Weather Map
Tropical Storm Tracking
New forecast layout! Learn more

10-Day Weather Forecast

Advertisements
Track Severe Weather on mobile